Time;durP1;ratioP1;P1;durP2;ratioP2;P2;SDS_P1;SDS_P2;PMS_P1;PMS_P2;Temp;Humidity;BMP_temperature;BMP_pressure;BME280_temperature;BME280_humidity;BME280_pressure;Samples;Min_cycle;Max_cycle;Signal;HPM_P1;HPM_P2
2023/09/16 00:02:05;;;;;;;33.35;23.50;;;;;;;19.48;72.62;100508.95;1754912;80;21365;-79
2023/09/16 00:05:12;;;;;;;36.63;22.40;;;;;;;19.46;72.92;100502.77;1720841;83;21877;-79
2023/09/16 00:08:17;;;;;;;32.23;22.73;;;;;;;19.34;73.05;100511.55;1720522;83;21334;-79
2023/09/16 00:11:23;;;;;;;35.50;23.18;;;;;;;19.14;73.74;100518.11;1719523;83;22600;-79
2023/09/16 00:14:29;;;;;;;34.10;20.55;;;;;;;18.95;74.16;100530.77;1719496;83;21321;-79
2023/09/16 00:17:28;;;;;;;31.60;20.75;;;;;;;18.77;74.85;100520.46;1719654;83;21331;-79
2023/09/16 00:20:33;;;;;;;32.05;22.20;;;;;;;18.82;74.60;100527.05;1720898;83;21896;-79
2023/09/16 00:23:38;;;;;;;29.20;20.72;;;;;;;19.08;73.70;100517.64;1721016;83;21351;-79
2023/09/16 00:26:43;;;;;;;23.52;17.57;;;;;;;19.18;73.25;100531.53;1721044;83;21346;-79
2023/09/16 00:29:48;;;;;;;28.32;19.20;;;;;;;19.17;73.21;100521.52;1719953;83;21378;-78
2023/09/16 00:32:54;;;;;;;27.95;19.37;;;;;;;19.14;73.12;100529.74;1720931;83;21522;-79
2023/09/16 00:36:00;;;;;;;26.80;19.80;;;;;;;19.08;73.28;100524.58;1720887;83;21906;-79
2023/09/16 00:39:05;;;;;;;25.25;17.92;;;;;;;19.00;73.56;100528.17;1720365;83;21354;-79
2023/09/16 00:42:10;;;;;;;32.25;20.50;;;;;;;18.99;73.46;100548.11;1720916;83;21308;-79
2023/09/16 00:45:17;;;;;;;34.08;22.32;;;;;;;19.04;73.25;100532.19;1720950;82;21310;-79
2023/09/16 00:48:23;;;;;;;28.52;20.23;;;;;;;18.67;74.58;100530.62;1719571;83;21330;-79
2023/09/16 00:51:30;;;;;;;39.38;23.75;;;;;;;19.05;73.45;100532.48;1720878;83;21311;-79
2023/09/16 00:54:35;;;;;;;35.85;24.07;;;;;;;18.84;73.98;100529.05;1720875;83;21873;-79
2023/09/16 00:57:40;;;;;;;27.87;20.50;;;;;;;18.95;73.75;100529.39;1720918;83;21298;-79
2023/09/16 01:00:46;;;;;;;33.83;22.85;;;;;;;18.96;73.65;100535.23;1719653;82;21341;-79
2023/09/16 01:03:51;;;;;;;35.17;22.00;;;;;;;18.97;73.35;100538.34;1721043;83;21290;-79
2023/09/16 01:06:58;;;;;;;31.62;20.00;;;;;;;19.06;73.16;100540.60;1719600;83;21283;-79
2023/09/16 01:10:03;;;;;;;33.10;21.52;;;;;;;19.13;72.87;100546.08;1719288;83;21904;-79
2023/09/16 01:13:08;;;;;;;31.17;22.00;;;;;;;19.19;72.63;100552.63;1721191;83;21298;-78
2023/09/16 01:16:47;;;;;;;35.55;21.95;;;;;;;18.79;74.06;100552.97;1735820;82;21323;-79
2023/09/16 01:20:06;;;;;;;29.07;20.48;;;;;;;18.85;73.78;100557.61;1782423;80;21355;-79
2023/09/16 01:23:11;;;;;;;29.87;18.90;;;;;;;18.72;74.13;100556.31;1750416;82;21378;-79
2023/09/16 01:26:17;;;;;;;28.38;18.95;;;;;;;18.78;73.99;100563.20;1782387;79;21331;-79
2023/09/16 01:29:24;;;;;;;30.92;19.52;;;;;;;18.51;74.82;100562.49;1783111;80;21336;-78
2023/09/16 01:32:34;;;;;;;32.30;22.87;;;;;;;18.67;74.30;100564.41;1751235;82;21295;-78
2023/09/16 01:35:41;;;;;;;41.28;22.48;;;;;;;18.75;73.98;100564.19;1782056;80;21288;-79
2023/09/16 01:38:47;;;;;;;35.40;22.77;;;;;;;18.52;74.32;100568.34;1783387;80;21323;-79
2023/09/16 01:41:53;;;;;;;27.80;20.30;;;;;;;18.59;74.29;100566.39;1750234;82;21343;-79
2023/09/16 01:45:03;;;;;;;34.85;22.05;;;;;;;18.56;74.38;100579.30;1783229;80;21628;-79
2023/09/16 01:48:10;;;;;;;34.18;20.80;;;;;;;18.40;74.90;100575.67;1783292;80;21292;-79
2023/09/16 01:51:15;;;;;;;26.30;17.75;;;;;;;18.53;74.43;100572.80;1749624;82;21327;-79
2023/09/16 01:54:20;;;;;;;32.55;21.10;;;;;;;18.81;73.45;100589.06;1782039;80;21334;-79
2023/09/16 01:57:26;;;;;;;29.60;19.62;;;;;;;18.78;73.42;100577.06;1782477;80;21323;-79
2023/09/16 02:00:32;;;;;;;32.23;20.57;;;;;;;18.70;73.78;100580.63;1743293;82;21354;-79
2023/09/16 02:03:38;;;;;;;29.37;19.77;;;;;;;18.70;73.58;100584.79;1718791;83;21904;-78
2023/09/16 02:06:46;;;;;;;28.57;17.50;;;;;;;18.68;73.45;100584.98;1718890;83;21331;-79
2023/09/16 02:09:53;;;;;;;30.23;18.50;;;;;;;18.62;73.59;100584.47;1720339;83;21409;-79
2023/09/16 02:12:58;;;;;;;25.37;17.92;;;;;;;18.75;73.22;100592.73;1719666;83;21331;-79
2023/09/16 02:16:05;;;;;;;20.00;16.20;;;;;;;18.79;72.86;100590.38;1720939;83;21303;-79
2023/09/16 02:19:11;;;;;;;23.35;16.45;;;;;;;18.99;71.83;100589.69;1721011;83;21658;-79
2023/09/16 02:22:17;;;;;;;19.32;15.30;;;;;;;18.76;72.26;100607.44;1720768;83;21324;-79
2023/09/16 02:25:21;;;;;;;19.02;14.83;;;;;;;18.63;72.48;100600.89;1718066;83;21370;-79
2023/09/16 02:28:28;;;;;;;21.40;15.43;;;;;;;18.67;72.13;100596.27;1719394;83;21904;-79
2023/09/16 02:31:28;;;;;;;19.00;13.70;;;;;;;18.76;71.47;100603.28;1719657;83;21338;-79
2023/09/16 02:34:22;;;;;;;18.85;14.58;;;;;;;18.97;70.41;100609.87;1720613;83;22086;-78
2023/09/16 02:37:09;;;;;;;22.58;15.15;;;;;;;19.05;69.50;100604.56;1720897;83;21331;-79
2023/09/16 02:40:02;;;;;;;15.48;13.53;;;;;;;18.67;70.40;100603.20;1720747;83;21256;-79
2023/09/16 02:43:01;;;;;;;19.00;13.93;;;;;;;18.53;70.82;100598.27;1720173;83;21381;-79
2023/09/16 02:46:07;;;;;;;15.93;13.53;;;;;;;18.62;70.37;100601.94;1719106;83;21358;-79
2023/09/16 02:49:13;;;;;;;20.72;14.53;;;;;;;18.76;70.22;100608.83;1720700;83;21862;-79
2023/09/16 02:52:20;;;;;;;20.95;14.63;;;;;;;18.71;70.13;100603.11;1719513;83;21342;-79
2023/09/16 02:55:27;;;;;;;19.23;15.20;;;;;;;18.67;70.38;100610.13;1720964;83;21319;-78
2023/09/16 02:58:31;;;;;;;20.88;16.02;;;;;;;18.62;70.50;100604.71;1720105;83;21394;-79
2023/09/16 03:01:38;;;;;;;24.72;16.65;;;;;;;18.48;70.64;100602.23;1719801;82;21702;-79
2023/09/16 03:04:45;;;;;;;18.15;14.38;;;;;;;18.24;71.15;100604.70;1720747;83;21330;-79
2023/09/16 03:07:52;;;;;;;23.73;16.32;;;;;;;18.43;70.37;100618.14;1720697;83;21307;-79
2023/09/16 03:10:57;;;;;;;20.37;15.00;;;;;;;18.43;70.19;100608.44;1720356;83;21343;-79
2023/09/16 03:14:02;;;;;;;23.80;15.32;;;;;;;18.22;71.00;100608.77;1719852;83;21378;-79
2023/09/16 03:17:08;;;;;;;18.27;15.58;;;;;;;18.25;70.65;100613.84;1719594;83;21314;-79
2023/09/16 03:20:15;;;;;;;22.93;15.53;;;;;;;18.10;70.95;100630.19;1719541;83;21612;-79
2023/09/16 03:23:21;;;;;;;22.40;16.80;;;;;;;18.11;70.92;100629.15;1719368;83;21304;-79
2023/09/16 03:26:27;;;;;;;22.30;16.65;;;;;;;18.12;70.86;100633.61;1715981;83;21393;-79
2023/09/16 03:29:35;;;;;;;21.80;15.45;;;;;;;18.33;70.23;100631.07;1724103;83;21358;-79
2023/09/16 03:32:41;;;;;;;21.05;15.58;;;;;;;17.67;72.57;100635.91;1721449;83;21361;-79
2023/09/16 03:35:46;;;;;;;25.08;17.30;;;;;;;18.11;71.28;100644.37;1722618;83;21318;-79
2023/09/16 03:38:55;;;;;;;23.38;16.10;;;;;;;18.20;70.74;100649.11;1722726;83;21351;-79
2023/09/16 03:42:02;;;;;;;24.23;16.15;;;;;;;18.13;70.82;100649.69;1722152;83;21314;-78
2023/09/16 03:45:07;;;;;;;20.15;14.03;;;;;;;18.12;70.83;100665.44;1724380;82;21315;-79
2023/09/16 03:48:15;;;;;;;22.82;14.28;;;;;;;18.14;70.70;100670.22;1750189;82;21346;-79
2023/09/16 03:51:20;;;;;;;16.65;13.72;;;;;;;18.01;70.82;100673.01;1750753;82;21342;-79
2023/09/16 03:54:26;;;;;;;24.05;15.23;;;;;;;18.05;70.52;100675.66;1750878;82;21311;-79
2023/09/16 03:57:32;;;;;;;17.07;13.60;;;;;;;17.98;70.71;100682.30;1751014;82;21302;-79
2023/09/16 04:00:38;;;;;;;19.15;14.35;;;;;;;17.92;70.48;100687.30;1743116;82;21947;-79
2023/09/16 04:03:44;;;;;;;17.35;13.30;;;;;;;17.90;69.91;100688.91;1722437;83;21327;-79
2023/09/16 04:06:52;;;;;;;21.00;13.93;;;;;;;17.87;69.96;100694.32;1722575;83;21338;-79
2023/09/16 04:09:58;;;;;;;19.30;13.70;;;;;;;17.95;69.78;100696.56;1722426;83;21341;-79
2023/09/16 04:13:03;;;;;;;18.87;14.33;;;;;;;18.10;68.95;100698.55;1721192;83;21357;-79
2023/09/16 04:16:09;;;;;;;25.43;14.95;;;;;;;17.69;70.62;100712.10;1722458;82;21327;-79
2023/09/16 04:19:12;;;;;;;15.60;13.20;;;;;;;17.54;71.08;100716.44;1722508;83;22344;-79
2023/09/16 04:22:19;;;;;;;15.43;13.78;;;;;;;17.50;71.05;100717.95;1722056;83;21949;-79
2023/09/16 04:25:23;;;;;;;17.07;13.20;;;;;;;17.66;70.15;100718.05;1720341;83;21317;-78
2023/09/16 04:28:29;;;;;;;19.40;12.18;;;;;;;17.59;70.60;100718.56;1694851;84;21340;-79
2023/09/16 04:34:47;;;;;;;20.00;12.73;;;;;;;17.28;71.20;100733.02;1700681;84;21313;-79
2023/09/16 04:37:53;;;;;;;21.95;14.73;;;;;;;17.29;71.34;100734.72;1702189;84;21350;-79
2023/09/16 04:41:00;;;;;;;20.45;13.93;;;;;;;17.11;72.12;100744.45;1702285;84;21333;-80
2023/09/16 04:44:08;;;;;;;15.08;12.37;;;;;;;17.19;71.76;100753.09;1700817;84;21360;-79
2023/09/16 04:47:14;;;;;;;17.45;12.73;;;;;;;17.16;71.54;100754.03;1701920;84;21332;-79
2023/09/16 04:50:21;;;;;;;15.85;11.38;;;;;;;17.66;70.30;100756.78;1724635;83;21315;-79
2023/09/16 04:53:26;;;;;;;17.92;12.33;;;;;;;17.95;69.46;100767.98;1700696;84;21361;-79
2023/09/16 04:56:31;;;;;;;22.55;13.05;;;;;;;18.13;68.67;100765.41;1705006;84;21319;-79
2023/09/16 04:59:36;;;;;;;14.68;11.40;;;;;;;18.17;68.08;100764.99;1704930;84;22199;-79
2023/09/16 05:02:43;;;;;;;15.85;11.33;;;;;;;18.12;68.19;100766.48;1672362;85;21363;-80
2023/09/16 05:05:49;;;;;;;18.82;11.75;;;;;;;18.09;68.20;100770.20;1673624;85;21399;-79
2023/09/16 05:08:56;;;;;;;14.15;10.88;;;;;;;18.36;67.44;100772.41;1673651;85;21316;-79
2023/09/16 05:12:02;;;;;;;16.32;11.45;;;;;;;18.44;67.42;100774.92;1673779;85;21330;-79
2023/09/16 05:15:07;;;;;;;13.18;10.28;;;;;;;18.53;67.13;100779.16;1673615;85;21327;-79
2023/09/16 05:18:11;;;;;;;21.00;10.85;;;;;;;18.62;66.79;100782.55;1673331;85;21350;-79
2023/09/16 05:21:17;;;;;;;13.25;10.65;;;;;;;18.57;66.47;100784.59;1672222;85;21962;-79
2023/09/16 05:24:23;;;;;;;15.93;10.23;;;;;;;18.49;66.57;100783.97;1672523;85;21917;-79
2023/09/16 05:27:29;;;;;;;13.15;10.65;;;;;;;18.54;66.61;100786.44;1673475;85;21383;-79
2023/09/16 05:30:34;;;;;;;11.25;9.63;;;;;;;18.71;66.61;100784.59;1673584;85;21601;-79
2023/09/16 05:33:40;;;;;;;16.12;11.03;;;;;;;18.76;65.95;100784.78;1688345;85;21338;-79
2023/09/16 05:36:46;;;;;;;13.00;9.45;;;;;;;18.84;65.48;100786.78;1643212;87;22316;-79
2023/09/16 05:39:52;;;;;;;11.93;9.28;;;;;;;18.95;65.49;100783.00;1641913;87;21267;-79
2023/09/16 05:42:58;;;;;;;12.03;9.53;;;;;;;19.00;65.41;100783.19;1643181;87;21353;-79
2023/09/16 05:46:06;;;;;;;13.32;9.50;;;;;;;19.01;64.48;100796.85;1643111;87;21330;-79
2023/09/16 05:49:11;;;;;;;12.98;10.03;;;;;;;18.94;64.68;100794.62;1642673;87;21373;-79
2023/09/16 05:52:17;;;;;;;18.42;8.58;;;;;;;18.99;64.48;100792.05;1643582;87;21365;-79
2023/09/16 05:55:22;;;;;;;17.25;9.08;;;;;;;19.05;64.17;100795.31;1643438;87;21348;-79
2023/09/16 05:58:29;;;;;;;13.10;7.62;;;;;;;19.18;63.56;100804.11;1672384;85;21942;-79
2023/09/16 06:01:34;;;;;;;15.65;9.28;;;;;;;19.17;63.97;100806.58;1689684;84;21365;-79
2023/09/16 06:04:40;;;;;;;14.38;6.90;;;;;;;19.23;63.79;100811.77;1672360;85;21884;-79
2023/09/16 06:07:49;;;;;;;9.25;7.75;;;;;;;19.35;63.45;100812.24;1690749;85;21342;-79
2023/09/16 06:10:54;;;;;;;14.87;8.28;;;;;;;19.45;62.34;100810.37;1673462;85;21345;-79
2023/09/16 06:14:00;;;;;;;18.23;7.75;;;;;;;19.64;62.93;100828.00;1690434;85;21365;-79
2023/09/16 06:17:05;;;;;;;13.53;8.10;;;;;;;19.80;62.05;100808.56;1673583;85;21303;-79
2023/09/16 06:20:13;;;;;;;13.83;7.72;;;;;;;20.00;60.59;100820.37;1689193;85;22758;-79
2023/09/16 06:23:19;;;;;;;9.45;7.42;;;;;;;20.15;60.56;100824.20;1673523;85;21280;-79
2023/09/16 06:26:24;;;;;;;9.03;6.58;;;;;;;19.94;60.98;100825.42;1690611;85;21382;-79
2023/09/16 06:29:31;;;;;;;12.23;7.55;;;;;;;20.12;59.84;100831.05;1673546;85;21314;-79
2023/09/16 06:32:37;;;;;;;8.48;7.00;;;;;;;20.05;59.40;100832.20;1662945;86;21354;-79
2023/09/16 06:35:42;;;;;;;9.48;6.78;;;;;;;20.38;58.23;100839.70;1652189;86;21429;-79
2023/09/16 06:38:48;;;;;;;9.83;6.72;;;;;;;20.29;57.88;100841.60;1657239;86;21330;-79
2023/09/16 06:41:54;;;;;;;10.25;6.75;;;;;;;20.42;57.82;100845.66;1647135;86;21371;-79
2023/09/16 06:44:58;;;;;;;8.75;7.17;;;;;;;20.62;58.09;100829.66;1639725;86;21359;-79
2023/09/16 06:48:08;;;;;;;9.50;6.12;;;;;;;20.55;58.73;100833.56;1670553;86;22102;-79
2023/09/16 06:51:13;;;;;;;11.18;6.15;;;;;;;20.73;57.79;100842.47;1669180;86;21389;-79
2023/09/16 06:54:18;;;;;;;11.10;6.45;;;;;;;20.81;56.30;100846.34;1669267;86;21410;-79
2023/09/16 06:57:24;;;;;;;8.80;6.08;;;;;;;20.78;56.01;100855.14;1669025;86;21347;-79
2023/09/16 07:00:31;;;;;;;11.20;6.12;;;;;;;20.95;55.21;100842.34;1668413;86;21998;-79
2023/09/16 07:03:36;;;;;;;10.10;6.40;;;;;;;20.89;55.65;100857.17;1662361;86;21956;-79
2023/09/16 07:06:42;;;;;;;11.25;6.45;;;;;;;20.83;56.04;100858.92;1662576;86;21349;-79
2023/09/16 07:09:47;;;;;;;8.68;6.80;;;;;;;21.03;55.27;100847.59;1675942;85;21325;-79
2023/09/16 07:12:54;;;;;;;6.87;5.90;;;;;;;21.26;55.29;100864.94;1676007;85;21312;-79
2023/09/16 07:16:02;;;;;;;13.10;6.40;;;;;;;21.28;54.78;100850.81;1674682;85;21371;-79
2023/09/16 07:19:09;;;;;;;13.93;7.15;;;;;;;21.19;55.31;100851.67;1675728;85;21322;-79
2023/09/16 07:22:18;;;;;;;6.67;5.97;;;;;;;21.18;55.14;100852.22;1675857;85;21910;-79
2023/09/16 07:25:23;;;;;;;15.03;6.42;;;;;;;21.30;56.09;100856.44;1675129;85;21300;-79
2023/09/16 07:28:29;;;;;;;9.33;6.17;;;;;;;21.51;55.23;100867.66;1675843;85;21673;-79
2023/09/16 07:31:35;;;;;;;9.88;7.40;;;;;;;21.74;54.07;100870.20;1683720;85;21322;-79
2023/09/16 07:34:39;;;;;;;8.70;7.00;;;;;;;21.78;53.64;100868.11;1669191;86;21815;-81
2023/09/16 07:37:46;;;;;;;10.05;6.53;;;;;;;21.89;53.65;100867.86;1671438;85;21282;-79
2023/09/16 07:40:52;;;;;;;7.55;6.12;;;;;;;22.05;52.99;100878.30;1692610;84;21893;-79
2023/09/16 07:43:59;;;;;;;8.20;6.37;;;;;;;22.22;51.70;100863.19;1692548;84;21975;-79
2023/09/16 07:47:04;;;;;;;8.00;6.03;;;;;;;22.33;51.35;100860.11;1670693;86;21319;-79
2023/09/16 07:50:10;;;;;;;8.83;6.12;;;;;;;22.44;51.45;100854.55;1671001;86;21376;-79
2023/09/16 07:53:15;;;;;;;7.30;5.50;;;;;;;22.59;51.06;100859.64;1669468;86;21363;-79
2023/09/16 07:56:20;;;;;;;13.50;5.45;;;;;;;22.59;50.95;100868.01;1669690;86;21367;-79
2023/09/16 07:59:26;;;;;;;7.05;5.17;;;;;;;22.83;49.58;100866.61;1670623;86;21335;-79
2023/09/16 08:02:32;;;;;;;11.05;5.80;;;;;;;23.08;48.59;100864.95;1670651;86;21336;-79
2023/09/16 08:05:38;;;;;;;7.25;4.65;;;;;;;23.20;48.61;100875.01;1670450;86;21379;-79
2023/09/16 08:08:43;;;;;;;9.93;4.90;;;;;;;23.20;48.07;100879.75;1670890;86;21379;-79
2023/09/16 08:11:50;;;;;;;9.05;4.53;;;;;;;23.12;47.31;100892.67;1669529;86;21725;-79
2023/09/16 08:14:56;;;;;;;7.75;5.05;;;;;;;23.30;47.05;100879.95;1670732;86;21335;-79
2023/09/16 08:18:01;;;;;;;9.78;4.50;;;;;;;23.41;47.71;100884.64;1651309;87;21918;-79
2023/09/16 08:21:09;;;;;;;8.75;5.22;;;;;;;23.66;47.23;100892.72;1614079;89;21416;-79
2023/09/16 08:24:14;;;;;;;10.40;4.95;;;;;;;23.16;47.46;100891.94;1650295;87;21342;-79
2023/09/16 08:27:21;;;;;;;7.45;5.53;;;;;;;23.24;47.52;100888.45;1613550;89;21354;-79
2023/09/16 08:30:26;;;;;;;5.70;4.50;;;;;;;23.35;47.51;100893.17;1650414;87;21344;-80
2023/09/16 08:33:32;;;;;;;4.70;4.15;;;;;;;23.24;47.98;100880.92;1655854;86;21347;-80
2023/09/16 08:36:37;;;;;;;7.62;4.42;;;;;;;23.50;45.75;100882.31;1609710;89;21389;-80
2023/09/16 08:39:42;;;;;;;8.85;4.78;;;;;;;23.79;45.51;100888.78;1601609;89;21916;-79
2023/09/16 08:43:00;;;;;;;6.67;4.92;;;;;;;23.22;47.45;100878.94;1600334;89;22222;-79
2023/09/16 08:46:11;;;;;;;6.58;5.20;;;;;;;23.51;47.33;100886.80;1601411;88;21344;-80
2023/09/16 08:49:17;;;;;;;5.03;4.50;;;;;;;23.41;47.11;100883.25;1601552;89;21349;-80
2023/09/16 08:52:24;;;;;;;5.47;4.35;;;;;;;23.54;46.52;100888.27;1601096;89;21372;-80
2023/09/16 08:55:32;;;;;;;6.12;4.55;;;;;;;23.39;46.78;100886.84;1585049;89;21382;-80
2023/09/16 08:58:40;;;;;;;8.25;4.00;;;;;;;23.34;46.33;100880.31;1601691;89;22562;-80
2023/09/16 09:01:46;;;;;;;5.78;4.58;;;;;;;23.83;45.38;100887.74;1612365;88;21357;-80
2023/09/16 09:04:52;;;;;;;6.72;4.45;;;;;;;24.11;44.21;100898.89;1635978;87;21373;-80
2023/09/16 09:07:58;;;;;;;5.72;4.47;;;;;;;23.81;43.66;100908.11;1649875;87;21402;-79
2023/09/16 09:11:04;;;;;;;6.00;3.55;;;;;;;23.50;44.80;100906.05;1674381;85;21222;-79
2023/09/16 09:14:10;;;;;;;6.95;3.58;;;;;;;23.97;43.34;100898.36;1674523;85;21359;-79
2023/09/16 09:17:17;;;;;;;7.55;4.10;;;;;;;24.19;42.81;100898.48;1675527;85;21230;-80
2023/09/16 09:20:30;;;;;;;4.53;3.70;;;;;;;24.07;43.14;100907.47;1675138;85;21351;-80
2023/09/16 09:23:35;;;;;;;4.25;3.77;;;;;;;24.24;42.61;100910.30;1675219;85;21363;-79
2023/09/16 09:26:40;;;;;;;5.55;4.30;;;;;;;24.25;42.94;100911.16;1659575;85;21339;-80
2023/09/16 09:29:46;;;;;;;5.85;4.33;;;;;;;24.41;42.20;100903.34;1676206;85;21361;-80
2023/09/16 09:32:55;;;;;;;5.30;3.92;;;;;;;24.02;43.08;100911.57;1660417;85;21348;-80
2023/09/16 09:36:20;;;;;;;5.87;3.95;;;;;;;24.13;41.59;100917.63;1676258;85;21340;-80
2023/09/16 09:39:28;;;;;;;6.78;3.58;;;;;;;24.32;41.66;100914.61;1685339;85;21377;-80
2023/09/16 09:42:33;;;;;;;9.55;3.70;;;;;;;24.34;40.96;100923.06;1670388;86;21324;-79
2023/09/16 09:45:43;;;;;;;4.45;3.33;;;;;;;24.41;40.11;100927.11;1654426;85;21339;-80
2023/09/16 09:48:49;;;;;;;5.28;3.15;;;;;;;24.34;39.66;100920.81;1672369;85;21311;-80
2023/09/16 09:51:56;;;;;;;4.78;2.90;;;;;;;24.78;38.45;100913.46;1682992;85;21684;-80
2023/09/16 09:55:01;;;;;;;3.15;2.75;;;;;;;24.69;38.55;100917.23;1689991;85;21339;-80
2023/09/16 09:58:06;;;;;;;5.78;3.12;;;;;;;24.62;39.76;100924.97;1689248;85;21383;-80
2023/09/16 10:01:12;;;;;;;7.47;3.12;;;;;;;24.83;38.75;100909.34;1688831;85;21984;-80
2023/09/16 10:04:18;;;;;;;4.67;3.25;;;;;;;24.88;38.72;100914.17;1651826;85;21349;-80
2023/09/16 10:07:23;;;;;;;6.85;3.27;;;;;;;24.89;39.53;100904.66;1689850;85;21373;-79
2023/09/16 10:10:32;;;;;;;3.87;3.08;;;;;;;24.87;38.40;100920.88;1688584;85;21325;-80
2023/09/16 10:13:38;;;;;;;3.75;2.90;;;;;;;24.97;37.87;100919.63;1690325;85;21350;-79
2023/09/16 10:16:43;;;;;;;4.15;3.08;;;;;;;24.92;37.87;100914.80;1680154;85;21319;-80
2023/09/16 10:19:51;;;;;;;6.67;3.33;;;;;;;24.83;38.72;100923.88;1664262;86;21354;-80
2023/09/16 10:22:57;;;;;;;4.87;2.98;;;;;;;24.87;38.51;100920.32;1662502;86;21409;-80
2023/09/16 10:26:03;;;;;;;3.02;2.52;;;;;;;25.00;38.42;100916.32;1662148;86;21417;-80
2023/09/16 10:29:08;;;;;;;4.30;2.98;;;;;;;25.11;37.19;100919.58;1662865;86;21339;-80
2023/09/16 10:32:13;;;;;;;5.47;3.50;;;;;;;25.31;36.92;100928.81;1687735;85;21321;-80
2023/09/16 10:35:20;;;;;;;4.20;3.33;;;;;;;25.38;37.12;100918.84;1689795;85;21410;-80
2023/09/16 10:38:26;;;;;;;2.87;2.52;;;;;;;25.03;37.62;100920.54;1689091;85;22011;-80
2023/09/16 10:41:33;;;;;;;3.50;2.98;;;;;;;25.00;36.11;100927.52;1689564;85;21326;-80
2023/09/16 10:44:38;;;;;;;3.83;3.08;;;;;;;25.19;36.61;100914.95;1689378;85;21319;-80
2023/09/16 10:47:44;;;;;;;6.83;3.00;;;;;;;25.43;36.62;100913.30;1641711;87;21356;-80
2023/09/16 10:50:50;;;;;;;4.78;3.80;;;;;;;25.30;37.70;100921.52;1663931;86;21374;-81
2023/09/16 10:53:59;;;;;;;3.65;3.10;;;;;;;25.34;38.04;100910.66;1663729;86;21362;-80
2023/09/16 10:57:05;;;;;;;4.30;3.13;;;;;;;25.33;36.73;100916.81;1676112;85;21324;-80
2023/09/16 11:00:11;;;;;;;3.35;3.05;;;;;;;25.21;37.37;100923.92;1676565;85;22370;-80
2023/09/16 11:03:21;;;;;;;3.67;3.00;;;;;;;25.49;36.85;100915.89;1670639;86;21358;-80
2023/09/16 11:06:26;;;;;;;3.67;3.20;;;;;;;25.45;35.92;100916.15;1691132;84;21330;-80
2023/09/16 11:09:32;;;;;;;5.30;3.30;;;;;;;25.41;35.57;100923.93;1669209;86;21311;-80
2023/09/16 11:12:38;;;;;;;4.58;3.40;;;;;;;25.47;35.66;100922.88;1672778;85;21357;-80
2023/09/16 11:15:44;;;;;;;6.72;3.17;;;;;;;25.54;35.40;100915.11;1669976;86;21885;-80
2023/09/16 11:18:51;;;;;;;5.35;3.37;;;;;;;25.70;35.27;100925.41;1679206;85;21338;-80
2023/09/16 11:21:58;;;;;;;5.15;3.22;;;;;;;25.92;35.79;100925.95;1620802;87;21378;-80
2023/09/16 11:25:03;;;;;;;4.12;3.50;;;;;;;25.92;34.90;100914.74;1679420;85;21346;-80
2023/09/16 11:28:10;;;;;;;3.95;3.10;;;;;;;25.74;34.65;100925.74;1669221;86;21331;-80
2023/09/16 11:31:14;;;;;;;3.50;2.83;;;;;;;25.55;35.46;100918.23;1670511;86;21357;-80
2023/09/16 11:34:26;;;;;;;4.25;3.55;;;;;;;25.90;35.17;100913.61;1633618;86;21336;-80
2023/09/16 11:37:32;;;;;;;4.47;3.30;;;;;;;25.84;34.80;100929.25;1670588;86;21328;-80
2023/09/16 11:40:39;;;;;;;3.62;3.02;;;;;;;25.97;34.88;100914.80;1666998;84;21601;-80
2023/09/16 11:43:47;;;;;;;4.03;3.37;;;;;;;25.90;33.66;100925.38;1658711;86;21340;-80
2023/09/16 11:46:53;;;;;;;6.72;3.12;;;;;;;25.73;33.92;100912.81;1658556;86;21339;-80
2023/09/16 11:49:58;;;;;;;14.60;3.90;;;;;;;25.95;33.82;100913.67;1657143;86;21379;-81
2023/09/16 11:53:04;;;;;;;4.35;3.35;;;;;;;25.99;34.01;100910.63;1656961;86;21371;-80
2023/09/16 11:56:09;;;;;;;5.37;2.67;;;;;;;25.96;34.00;100907.50;1657085;86;22032;-80
2023/09/16 11:59:15;;;;;;;4.05;3.50;;;;;;;25.94;33.56;100897.13;1657848;86;21391;-80
2023/09/16 12:02:20;;;;;;;3.10;2.77;;;;;;;26.10;33.06;100901.77;1660457;86;21337;-81
2023/09/16 12:05:26;;;;;;;3.85;3.00;;;;;;;26.13;32.82;100906.01;1660481;86;22265;-80
2023/09/16 12:08:32;;;;;;;3.75;3.00;;;;;;;26.29;32.99;100900.82;1660311;86;21409;-80
2023/09/16 12:11:38;;;;;;;6.22;3.30;;;;;;;26.55;32.82;100897.73;1659160;86;21377;-81
2023/09/16 12:14:43;;;;;;;3.70;2.98;;;;;;;26.53;32.17;100908.91;1660250;86;21334;-81
2023/09/16 12:17:50;;;;;;;5.72;2.85;;;;;;;26.59;32.22;100905.90;1621582;88;21350;-80
2023/09/16 12:20:55;;;;;;;4.67;3.50;;;;;;;26.57;31.97;100901.09;1634585;87;21374;-80
2023/09/16 12:24:02;;;;;;;4.58;3.17;;;;;;;26.57;31.68;100902.50;1635974;87;21334;-80
2023/09/16 12:27:07;;;;;;;3.98;3.05;;;;;;;26.63;31.89;100900.04;1635906;87;21330;-81
2023/09/16 12:30:14;;;;;;;4.55;3.40;;;;;;;26.54;32.20;100903.58;1635059;87;21335;-80
2023/09/16 12:33:19;;;;;;;3.40;3.10;;;;;;;26.55;32.30;100896.33;1635825;87;21340;-80
2023/09/16 12:36:34;;;;;;;3.72;3.40;;;;;;;26.54;32.57;100891.83;1635848;87;21332;-80
2023/09/16 12:39:38;;;;;;;3.95;3.35;;;;;;;26.50;32.58;100894.87;1635451;87;21371;-80
2023/09/16 12:42:46;;;;;;;3.80;3.12;;;;;;;26.34;32.04;100898.63;1641841;85;21356;-81
2023/09/16 12:45:52;;;;;;;4.67;3.45;;;;;;;26.18;32.40;100891.48;1655898;85;21324;-80
2023/09/16 12:48:58;;;;;;;5.72;3.55;;;;;;;26.11;32.29;100899.27;1675081;85;21367;-80
2023/09/16 12:52:04;;;;;;;6.50;3.17;;;;;;;25.87;32.60;100893.11;1676090;85;21352;-80
2023/09/16 12:55:09;;;;;;;6.90;3.47;;;;;;;26.37;31.67;100896.13;1676094;85;21348;-80
2023/09/16 12:58:17;;;;;;;4.17;3.77;;;;;;;26.36;32.00;100893.61;1676170;85;21328;-80
2023/09/16 13:01:28;;;;;;;3.47;3.17;;;;;;;26.24;31.67;100897.41;1675704;85;21281;-80
2023/09/16 13:04:35;;;;;;;7.03;3.33;;;;;;;26.37;31.85;100891.09;1676085;85;21935;-80
2023/09/16 13:07:42;;;;;;;4.40;3.70;;;;;;;26.29;31.61;100898.02;1676308;85;21257;-80
2023/09/16 13:10:48;;;;;;;4.05;3.65;;;;;;;26.27;31.27;100892.41;1675596;85;21352;-80
2023/09/16 13:13:55;;;;;;;4.37;3.35;;;;;;;26.28;31.09;100894.09;1674772;85;21770;-80
2023/09/16 13:17:00;;;;;;;4.70;3.72;;;;;;;26.37;31.18;100887.72;1676223;85;21331;-80
2023/09/16 13:20:06;;;;;;;3.40;3.10;;;;;;;26.38;31.17;100895.58;1658453;85;21930;-80
2023/09/16 13:23:11;;;;;;;5.67;3.62;;;;;;;26.33;31.27;100895.53;1676106;85;21209;-80
2023/09/16 13:26:20;;;;;;;4.90;3.42;;;;;;;26.35;31.23;100894.70;1675988;85;21618;-80
2023/09/16 13:29:27;;;;;;;4.60;3.70;;;;;;;26.18;31.29;100892.04;1676352;85;21356;-80
2023/09/16 13:32:32;;;;;;;4.62;3.60;;;;;;;26.21;31.42;100892.36;1675117;85;22445;-80
2023/09/16 13:35:40;;;;;;;4.70;3.60;;;;;;;26.12;31.44;100895.36;1675024;85;21918;-80
2023/09/16 13:38:46;;;;;;;3.42;3.12;;;;;;;26.24;31.48;100893.20;1676117;85;22003;-80
2023/09/16 13:41:52;;;;;;;3.92;3.52;;;;;;;26.21;31.89;100883.11;1674971;85;21387;-81
2023/09/16 13:44:57;;;;;;;4.60;3.70;;;;;;;26.33;31.88;100888.52;1699687;84;21354;-81
2023/09/16 13:48:25;;;;;;;3.77;3.47;;;;;;;26.32;31.98;100896.66;1700479;84;21876;-80
2023/09/16 13:51:30;;;;;;;3.45;3.15;;;;;;;26.23;31.80;100904.70;1699448;84;21330;-80
2023/09/16 13:54:35;;;;;;;4.20;3.20;;;;;;;26.20;31.17;100901.86;1700045;84;21325;-80
2023/09/16 13:57:41;;;;;;;4.90;3.70;;;;;;;26.14;31.50;100904.33;1699380;84;21376;-80
2023/09/16 14:00:46;;;;;;;4.83;3.80;;;;;;;26.18;31.63;100906.05;1693012;84;21964;-81
2023/09/16 14:03:52;;;;;;;4.33;3.92;;;;;;;26.20;31.38;100913.62;1690562;85;21312;-80
2023/09/16 14:06:57;;;;;;;4.72;3.98;;;;;;;26.27;31.30;100912.03;1652479;87;21341;-80
2023/09/16 14:10:03;;;;;;;8.60;3.75;;;;;;;26.26;31.25;100912.59;1652711;87;21372;-80
2023/09/16 14:13:10;;;;;;;5.42;3.95;;;;;;;26.43;31.05;100913.88;1651863;87;21374;-81
2023/09/16 14:16:16;;;;;;;6.08;4.17;;;;;;;26.23;31.40;100917.31;1652806;87;22311;-81
2023/09/16 14:19:24;;;;;;;6.95;3.83;;;;;;;25.94;31.49;100913.94;1652282;87;21357;-81
2023/09/16 14:22:30;;;;;;;4.20;3.80;;;;;;;25.74;32.11;100908.94;1632440;87;21399;-81